AFR258 LFPG-VVTS
Flight info
| Callsign | AFR258 |
|---|---|
| Flight time | N/A |
| Altitude | 37000 |
| Route | RANUX6H RANUX DCT BERUG DCT LUPEN UM164 UTABA DCT INPUL DCT SASAL DCT GAZDA DCT OLMIP DCT ZULOC DCT RIVOS DCT ADINA/K0913F370 L851 ROMOK DCT KUGOS/N0485F370 UL851 KARDE UN644 ROLIN N644 LAGAS M747 SUBUT T923 ERLEV/N0483F390 M11 RODAR A909 NINOP B475 DAVET P173 TAPIS L509 SULOM A466 ASARI L509 GGC/N0490F410 R460 CEA L507 BKK N506 ELMOP R468 SAPEN SAPEN5G |
| Aircraft | A359/H-SDE2E3GHIJ3J4J5LM1ORWXY/LB1D1 |
Departure
| Time | 2026-05-01 10:26 |
|---|---|
| Airport | Charles de Gaulle International Airport (LFPG) |
Arrival
| Time | N/A |
|---|---|
| Airport | Tan Son Nhat International Airport (VVTS) |
| Time | Latitude | Longitude | Altitude | Speed | Heading |
|---|---|---|---|---|---|
| 2026-05-01 09:48 | 49.00330 | 2.59001 | 360 ft | 0 kts | 84° |
| 2026-05-01 09:53 | 49.00330 | 2.59000 | 360 ft | 0 kts | 84° |
| 2026-05-01 10:09 | 49.00330 | 2.58998 | 360 ft | 0 kts | 84° |
| 2026-05-01 10:09 | 49.00329 | 2.58996 | 360 ft | 0 kts | 84° |
| 2026-05-01 10:09 | 49.00329 | 2.58993 | 360 ft | 0 kts | 84° |
| 2026-05-01 10:10 | 49.00329 | 2.58990 | 360 ft | 0 kts | 84° |
| 2026-05-01 10:10 | 49.00329 | 2.58986 | 360 ft | 0 kts | 84° |
| 2026-05-01 10:10 | 49.00328 | 2.58980 | 363 ft | 0 kts | 84° |
| 2026-05-01 10:11 | 49.00328 | 2.58976 | 360 ft | 1 kts | 84° |
| 2026-05-01 10:11 | 49.00330 | 2.58944 | 362 ft | 3 kts | 88° |
| 2026-05-01 10:11 | 49.00329 | 2.58910 | 360 ft | 4 kts | 96° |
| 2026-05-01 10:12 | 49.00336 | 2.58878 | 368 ft | 4 kts | 149° |
| 2026-05-01 10:12 | 49.00349 | 2.58871 | 360 ft | 4 kts | 175° |
| 2026-05-01 10:12 | 49.00375 | 2.58868 | 360 ft | 0 kts | 175° |
| 2026-05-01 10:15 | 49.00374 | 2.58869 | 360 ft | 2 kts | 175° |
| 2026-05-01 10:15 | 49.00319 | 2.58873 | 367 ft | 12 kts | 178° |
| 2026-05-01 10:16 | 49.00234 | 2.58879 | 366 ft | 12 kts | 176° |
| 2026-05-01 10:16 | 49.00147 | 2.58890 | 366 ft | 13 kts | 175° |
| 2026-05-01 10:16 | 49.00036 | 2.58758 | 360 ft | 12 kts | 266° |
| 2026-05-01 10:17 | 49.00029 | 2.58625 | 363 ft | 13 kts | 265° |
| 2026-05-01 10:17 | 49.00013 | 2.58328 | 366 ft | 15 kts | 265° |
| 2026-05-01 10:17 | 49.00005 | 2.58169 | 363 ft | 15 kts | 265° |
| 2026-05-01 10:18 | 48.99987 | 2.57834 | 367 ft | 17 kts | 265° |
| 2026-05-01 10:18 | 48.99977 | 2.57657 | 366 ft | 17 kts | 265° |
| 2026-05-01 10:18 | 48.99971 | 2.57539 | 360 ft | 17 kts | 265° |
| 2026-05-01 10:19 | 48.99961 | 2.57348 | 366 ft | 18 kts | 265° |
| 2026-05-01 10:19 | 48.99951 | 2.57160 | 365 ft | 18 kts | 265° |
| 2026-05-01 10:19 | 48.99940 | 2.56965 | 364 ft | 19 kts | 265° |
| 2026-05-01 10:20 | 48.99920 | 2.56578 | 366 ft | 18 kts | 265° |
| 2026-05-01 10:20 | 48.99910 | 2.56383 | 365 ft | 19 kts | 265° |
| 2026-05-01 10:20 | 48.99899 | 2.56187 | 366 ft | 18 kts | 265° |
| 2026-05-01 10:20 | 48.99890 | 2.55999 | 360 ft | 18 kts | 268° |
| 2026-05-01 10:21 | 48.99894 | 2.55820 | 364 ft | 14 kts | 245° |
| 2026-05-01 10:21 | 48.99785 | 2.55805 | 366 ft | 8 kts | 175° |
| 2026-05-01 10:21 | 48.99723 | 2.55812 | 362 ft | 9 kts | 175° |
| 2026-05-01 10:22 | 48.99704 | 2.55814 | 363 ft | 0 kts | 175° |
| 2026-05-01 10:22 | 48.99649 | 2.55821 | 364 ft | 10 kts | 175° |
| 2026-05-01 10:23 | 48.99606 | 2.55884 | 368 ft | 9 kts | 103° |
| 2026-05-01 10:23 | 48.99606 | 2.55906 | 364 ft | 0 kts | 86° |
| 2026-05-01 10:25 | 48.99636 | 2.56497 | 363 ft | 83 kts | 85° |
| 2026-05-01 10:26 | 48.99699 | 2.57667 | 365 ft | 137 kts | 86° |
| 2026-05-01 10:26 | 48.99788 | 2.59366 | 404 ft | 179 kts | 88° |
| 2026-05-01 10:26 | 48.99973 | 2.63216 | 1601 ft | 186 kts | 88° |
| 2026-05-01 10:27 | 49.00102 | 2.67239 | 2416 ft | 202 kts | 89° |
| 2026-05-01 10:27 | 49.00243 | 2.71825 | 2890 ft | 236 kts | 87° |
| 2026-05-01 10:28 | 49.00395 | 2.74418 | 3188 ft | 254 kts | 86° |
| 2026-05-01 10:28 | 49.00688 | 2.80040 | 3927 ft | 278 kts | 86° |
| 2026-05-01 10:28 | 49.00882 | 2.83020 | 4432 ft | 281 kts | 85° |
| 2026-05-01 10:29 | 49.01290 | 2.88624 | 6103 ft | 264 kts | 87° |
| 2026-05-01 10:29 | 49.01445 | 2.91436 | 6637 ft | 268 kts | 87° |
| 2026-05-01 10:30 | 49.02007 | 2.97155 | 7636 ft | 278 kts | 82° |
| 2026-05-01 10:30 | 49.02660 | 3.03079 | 8611 ft | 288 kts | 83° |
| 2026-05-01 10:31 | 49.03344 | 3.09056 | 10108 ft | 278 kts | 82° |
| 2026-05-01 10:31 | 49.04038 | 3.14745 | 11249 ft | 278 kts | 82° |
| 2026-05-01 10:32 | 49.04710 | 3.20498 | 11718 ft | 301 kts | 82° |
| 2026-05-01 10:32 | 49.05079 | 3.23700 | 11943 ft | 313 kts | 82° |
| 2026-05-01 10:32 | 49.05850 | 3.30475 | 12455 ft | 336 kts | 82° |
| 2026-05-01 10:33 | 49.06670 | 3.37735 | 12935 ft | 356 kts | 82° |
| 2026-05-01 10:33 | 49.07531 | 3.45397 | 13375 ft | 374 kts | 82° |
| 2026-05-01 10:34 | 49.07974 | 3.49356 | 13603 ft | 382 kts | 82° |
| 2026-05-01 10:34 | 49.08423 | 3.53381 | 13927 ft | 387 kts | 82° |
| 2026-05-01 10:34 | 49.08858 | 3.57431 | 14315 ft | 388 kts | 84° |
| 2026-05-01 10:35 | 49.09392 | 3.65674 | 15033 ft | 393 kts | 87° |
| 2026-05-01 10:35 | 49.09646 | 3.69841 | 15394 ft | 396 kts | 86° |
| 2026-05-01 10:35 | 49.09913 | 3.74030 | 15760 ft | 398 kts | 86° |
| 2026-05-01 10:35 | 49.10187 | 3.78242 | 16147 ft | 400 kts | 86° |
| 2026-05-01 10:36 | 49.10746 | 3.86801 | 16872 ft | 405 kts | 86° |
| 2026-05-01 10:36 | 49.11026 | 3.91083 | 17238 ft | 407 kts | 86° |
| 2026-05-01 10:36 | 49.11308 | 3.95400 | 17586 ft | 410 kts | 86° |
| 2026-05-01 10:37 | 49.11588 | 3.99737 | 17915 ft | 412 kts | 86° |
| 2026-05-01 10:37 | 49.12149 | 4.08493 | 18588 ft | 416 kts | 86° |
| 2026-05-01 10:37 | 49.12429 | 4.12900 | 18886 ft | 418 kts | 86° |
| 2026-05-01 10:38 | 49.12709 | 4.17332 | 19209 ft | 419 kts | 86° |
| 2026-05-01 10:38 | 49.12989 | 4.21769 | 19532 ft | 421 kts | 87° |
| 2026-05-01 10:38 | 49.13266 | 4.26223 | 19846 ft | 422 kts | 87° |
| 2026-05-01 10:38 | 49.13538 | 4.30684 | 20149 ft | 423 kts | 88° |
| 2026-05-01 10:39 | 49.13603 | 4.35170 | 20442 ft | 422 kts | 95° |
| 2026-05-01 10:39 | 49.13206 | 4.39588 | 20745 ft | 420 kts | 104° |
| 2026-05-01 10:39 | 49.12530 | 4.43941 | 20975 ft | 423 kts | 106° |
| 2026-05-01 10:39 | 49.11735 | 4.48268 | 21220 ft | 425 kts | 108° |
| 2026-05-01 10:40 | 49.10884 | 4.52596 | 21544 ft | 425 kts | 108° |
| 2026-05-01 10:40 | 49.10017 | 4.56929 | 21853 ft | 427 kts | 108° |
| 2026-05-01 10:40 | 49.09154 | 4.61273 | 22138 ft | 428 kts | 108° |
| 2026-05-01 10:40 | 49.08300 | 4.65624 | 22438 ft | 430 kts | 108° |
| 2026-05-01 10:41 | 49.07448 | 4.70009 | 22729 ft | 431 kts | 108° |
| 2026-05-01 10:41 | 49.06600 | 4.74405 | 23024 ft | 433 kts | 108° |
| 2026-05-01 10:41 | 49.04902 | 4.83235 | 23610 ft | 436 kts | 108° |
| 2026-05-01 10:42 | 49.04045 | 4.87681 | 23838 ft | 439 kts | 107° |
| 2026-05-01 10:42 | 49.03179 | 4.92162 | 24040 ft | 441 kts | 107° |
| 2026-05-01 10:42 | 49.02320 | 4.96598 | 24292 ft | 442 kts | 108° |
| 2026-05-01 10:42 | 49.01444 | 5.01098 | 24538 ft | 443 kts | 108° |
| 2026-05-01 10:43 | 49.00565 | 5.05610 | 24789 ft | 445 kts | 108° |
| 2026-05-01 10:43 | 48.99680 | 5.10134 | 25020 ft | 446 kts | 108° |
| 2026-05-01 10:43 | 48.98792 | 5.14669 | 25272 ft | 447 kts | 108° |
| 2026-05-01 10:43 | 48.97898 | 5.19220 | 25506 ft | 449 kts | 108° |
| 2026-05-01 10:44 | 48.96999 | 5.23788 | 25762 ft | 450 kts | 108° |
| 2026-05-01 10:44 | 48.96098 | 5.28353 | 25995 ft | 452 kts | 107° |
| 2026-05-01 10:44 | 48.95191 | 5.32943 | 26209 ft | 454 kts | 107° |
| 2026-05-01 10:44 | 48.94275 | 5.37561 | 26473 ft | 456 kts | 107° |
| 2026-05-01 10:45 | 48.93358 | 5.42178 | 26731 ft | 457 kts | 107° |
| 2026-05-01 10:45 | 48.92434 | 5.46817 | 26995 ft | 459 kts | 107° |
| 2026-05-01 10:45 | 48.91505 | 5.51473 | 27244 ft | 460 kts | 108° |
| 2026-05-01 10:45 | 48.90572 | 5.56133 | 27495 ft | 462 kts | 108° |
| 2026-05-01 10:46 | 48.89634 | 5.60808 | 27749 ft | 463 kts | 108° |
| 2026-05-01 10:46 | 48.88689 | 5.65507 | 27997 ft | 465 kts | 108° |
| 2026-05-01 10:46 | 48.87741 | 5.70211 | 28256 ft | 467 kts | 107° |
| 2026-05-01 10:46 | 48.86786 | 5.74936 | 28414 ft | 470 kts | 107° |
| 2026-05-01 10:47 | 48.85820 | 5.79709 | 28631 ft | 472 kts | 107° |
| 2026-05-01 10:47 | 48.84852 | 5.84480 | 28890 ft | 473 kts | 107° |
| 2026-05-01 10:47 | 48.83879 | 5.89259 | 29129 ft | 475 kts | 107° |
| 2026-05-01 10:47 | 48.82899 | 5.94062 | 29366 ft | 476 kts | 107° |
| 2026-05-01 10:48 | 48.81915 | 5.98871 | 29593 ft | 478 kts | 107° |
| 2026-05-01 10:48 | 48.80927 | 6.03694 | 29825 ft | 479 kts | 107° |
| 2026-05-01 10:48 | 48.79932 | 6.08533 | 30050 ft | 481 kts | 107° |
| 2026-05-01 10:48 | 48.78935 | 6.13374 | 30349 ft | 481 kts | 107° |
| 2026-05-01 10:49 | 48.77947 | 6.18157 | 30522 ft | 483 kts | 107° |
| 2026-05-01 10:49 | 48.76940 | 6.23020 | 30787 ft | 482 kts | 107° |
| 2026-05-01 10:49 | 48.75936 | 6.27858 | 31085 ft | 481 kts | 107° |
| 2026-05-01 10:49 | 48.74932 | 6.32683 | 31395 ft | 480 kts | 107° |
| 2026-05-01 10:50 | 48.73926 | 6.37511 | 31679 ft | 479 kts | 107° |
| 2026-05-01 10:50 | 48.72924 | 6.42306 | 31936 ft | 479 kts | 107° |
| 2026-05-01 10:50 | 48.71916 | 6.47118 | 32205 ft | 478 kts | 107° |
| 2026-05-01 10:50 | 48.70908 | 6.51917 | 32482 ft | 477 kts | 107° |
| 2026-05-01 10:51 | 48.69896 | 6.56720 | 32719 ft | 478 kts | 107° |
| 2026-05-01 10:51 | 48.68886 | 6.61506 | 32931 ft | 478 kts | 107° |
| 2026-05-01 10:51 | 48.67873 | 6.66295 | 33200 ft | 477 kts | 107° |
| 2026-05-01 10:51 | 48.66862 | 6.71065 | 33478 ft | 476 kts | 107° |
| 2026-05-01 10:52 | 48.65848 | 6.75838 | 33725 ft | 476 kts | 107° |
| 2026-05-01 10:52 | 48.64836 | 6.80592 | 33987 ft | 475 kts | 107° |
| 2026-05-01 10:52 | 48.63821 | 6.85345 | 34238 ft | 474 kts | 107° |
| 2026-05-01 10:52 | 48.62807 | 6.90085 | 34458 ft | 474 kts | 108° |
| 2026-05-01 10:53 | 48.61789 | 6.94829 | 34651 ft | 474 kts | 108° |
| 2026-05-01 10:53 | 48.61099 | 6.97974 | 34773 ft | 474 kts | 107° |
| 2026-05-01 10:53 | 48.60026 | 7.02697 | 34926 ft | 475 kts | 108° |
| 2026-05-01 10:53 | 48.58934 | 7.07399 | 35128 ft | 475 kts | 108° |
| 2026-05-01 10:54 | 48.57482 | 7.13614 | 35421 ft | 474 kts | 108° |
| 2026-05-01 10:54 | 48.55644 | 7.21501 | 35652 ft | 475 kts | 108° |
| 2026-05-01 10:54 | 48.54553 | 7.26194 | 35867 ft | 473 kts | 108° |
| 2026-05-01 10:55 | 48.53465 | 7.30875 | 36038 ft | 474 kts | 108° |
| 2026-05-01 10:55 | 48.51275 | 7.40295 | 36257 ft | 476 kts | 108° |
| 2026-05-01 10:55 | 48.50175 | 7.45013 | 36393 ft | 477 kts | 108° |
| 2026-05-01 10:56 | 48.49074 | 7.49722 | 36549 ft | 477 kts | 108° |
| 2026-05-01 10:56 | 48.47968 | 7.54436 | 36703 ft | 476 kts | 108° |
| 2026-05-01 10:56 | 48.46862 | 7.59144 | 36845 ft | 476 kts | 108° |
| 2026-05-01 10:56 | 48.45768 | 7.63792 | 36979 ft | 476 kts | 108° |
| 2026-05-01 10:57 | 48.44643 | 7.68559 | 37119 ft | 476 kts | 108° |
| 2026-05-01 10:57 | 48.43688 | 7.73332 | 37220 ft | 475 kts | 102° |
| 2026-05-01 10:57 | 48.43063 | 7.78219 | 37315 ft | 476 kts | 98° |
| 2026-05-01 10:58 | 48.42031 | 7.88100 | 37320 ft | 479 kts | 97° |
| 2026-05-01 10:58 | 48.41078 | 7.98031 | 37324 ft | 479 kts | 96° |
| 2026-05-01 10:59 | 48.40117 | 8.07957 | 37320 ft | 479 kts | 96° |
| 2026-05-01 10:59 | 48.39134 | 8.17861 | 37324 ft | 479 kts | 97° |
| 2026-05-01 11:00 | 48.38141 | 8.27715 | 37324 ft | 479 kts | 97° |
| 2026-05-01 11:00 | 48.37133 | 8.37623 | 37331 ft | 479 kts | 97° |
| 2026-05-01 11:01 | 48.36110 | 8.47585 | 37333 ft | 479 kts | 97° |
| 2026-05-01 11:01 | 48.35085 | 8.57475 | 37324 ft | 479 kts | 97° |
| 2026-05-01 11:02 | 48.34052 | 8.67376 | 37324 ft | 479 kts | 97° |
| 2026-05-01 11:02 | 48.33007 | 8.77292 | 37325 ft | 480 kts | 97° |
| 2026-05-01 11:03 | 48.31961 | 8.87142 | 37324 ft | 480 kts | 97° |
| 2026-05-01 11:03 | 48.30898 | 8.97062 | 37328 ft | 480 kts | 98° |
| 2026-05-01 11:04 | 48.29827 | 9.06965 | 37326 ft | 480 kts | 97° |
| 2026-05-01 11:04 | 48.28750 | 9.16847 | 37326 ft | 479 kts | 97° |
| 2026-05-01 11:05 | 48.27667 | 9.26717 | 37322 ft | 479 kts | 98° |
| 2026-05-01 11:05 | 48.26573 | 9.36598 | 37321 ft | 479 kts | 97° |
| 2026-05-01 11:06 | 48.25470 | 9.46472 | 37348 ft | 480 kts | 97° |
| 2026-05-01 11:06 | 48.24366 | 9.56324 | 37335 ft | 478 kts | 97° |
| 2026-05-01 11:07 | 48.22704 | 9.71072 | 37344 ft | 478 kts | 97° |
| 2026-05-01 11:07 | 48.21576 | 9.80965 | 37347 ft | 478 kts | 97° |
| 2026-05-01 11:08 | 48.20447 | 9.90791 | 37354 ft | 478 kts | 97° |
| 2026-05-01 11:09 | 48.18747 | 10.05427 | 37341 ft | 477 kts | 97° |
| 2026-05-01 11:09 | 48.17601 | 10.15220 | 37340 ft | 477 kts | 97° |
| 2026-05-01 11:10 | 48.15866 | 10.29892 | 37360 ft | 477 kts | 97° |
| 2026-05-01 11:10 | 48.14696 | 10.39677 | 37338 ft | 476 kts | 97° |
| 2026-05-01 11:11 | 48.13523 | 10.49424 | 37335 ft | 475 kts | 97° |
| 2026-05-01 11:11 | 48.12344 | 10.59161 | 37338 ft | 475 kts | 97° |
| 2026-05-01 11:12 | 48.11155 | 10.68902 | 37347 ft | 475 kts | 97° |
| 2026-05-01 11:12 | 48.09958 | 10.78625 | 37344 ft | 474 kts | 97° |
| 2026-05-01 11:13 | 48.08764 | 10.88260 | 37344 ft | 474 kts | 97° |
| 2026-05-01 11:13 | 48.07555 | 10.97950 | 37343 ft | 474 kts | 97° |
| 2026-05-01 11:14 | 48.06337 | 11.07641 | 37344 ft | 474 kts | 97° |
| 2026-05-01 11:14 | 48.05112 | 11.17316 | 37347 ft | 473 kts | 97° |
| 2026-05-01 11:15 | 48.03879 | 11.26973 | 37346 ft | 472 kts | 97° |
| 2026-05-01 11:15 | 48.02643 | 11.36601 | 37347 ft | 472 kts | 97° |
| 2026-05-01 11:16 | 48.01399 | 11.46231 | 37350 ft | 472 kts | 98° |
| 2026-05-01 11:16 | 48.00146 | 11.55848 | 37371 ft | 472 kts | 97° |
| 2026-05-01 11:17 | 47.98887 | 11.65450 | 37360 ft | 470 kts | 97° |
| 2026-05-01 11:17 | 47.97622 | 11.75034 | 37363 ft | 470 kts | 97° |
| 2026-05-01 11:18 | 47.96351 | 11.84600 | 37366 ft | 470 kts | 98° |
| 2026-05-01 11:18 | 47.95071 | 11.94164 | 37366 ft | 470 kts | 98° |
| 2026-05-01 11:19 | 47.93783 | 12.03725 | 37365 ft | 469 kts | 98° |
| 2026-05-01 11:19 | 47.92489 | 12.13265 | 37362 ft | 469 kts | 98° |
| 2026-05-01 11:20 | 47.91189 | 12.22793 | 37360 ft | 469 kts | 98° |
| 2026-05-01 11:20 | 47.89883 | 12.32305 | 37360 ft | 469 kts | 98° |
| 2026-05-01 11:21 | 47.88566 | 12.41827 | 37360 ft | 469 kts | 98° |
| 2026-05-01 11:21 | 47.87243 | 12.51335 | 37360 ft | 469 kts | 98° |
| 2026-05-01 11:22 | 47.85909 | 12.60856 | 37359 ft | 469 kts | 98° |
| 2026-05-01 11:22 | 47.84570 | 12.70364 | 37360 ft | 469 kts | 98° |
| 2026-05-01 11:23 | 47.83243 | 12.79864 | 37363 ft | 468 kts | 97° |
| 2026-05-01 11:23 | 47.81999 | 12.89351 | 37362 ft | 467 kts | 97° |
| 2026-05-01 11:24 | 47.80758 | 12.98841 | 37374 ft | 467 kts | 97° |
| 2026-05-01 11:25 | 47.78864 | 13.13045 | 37361 ft | 467 kts | 97° |
| 2026-05-01 11:25 | 47.76949 | 13.27173 | 37366 ft | 465 kts | 97° |
| 2026-05-01 11:26 | 47.75014 | 13.41313 | 37373 ft | 465 kts | 97° |
| 2026-05-01 11:27 | 47.73717 | 13.50724 | 37375 ft | 465 kts | 97° |
| 2026-05-01 11:27 | 47.72411 | 13.60125 | 37393 ft | 465 kts | 97° |
| 2026-05-01 11:28 | 47.71099 | 13.69514 | 37375 ft | 464 kts | 97° |
| 2026-05-01 11:28 | 47.69780 | 13.78893 | 37363 ft | 463 kts | 97° |
| 2026-05-01 11:29 | 47.68018 | 13.91359 | 37384 ft | 464 kts | 97° |
| 2026-05-01 11:30 | 47.66014 | 14.05384 | 37373 ft | 463 kts | 97° |
| 2026-05-01 11:30 | 47.64670 | 14.14722 | 37387 ft | 463 kts | 97° |
| 2026-05-01 11:31 | 47.63319 | 14.24054 | 37385 ft | 463 kts | 97° |
| 2026-05-01 11:31 | 47.61962 | 14.33375 | 37388 ft | 463 kts | 97° |
| 2026-05-01 11:32 | 47.60593 | 14.42698 | 37400 ft | 462 kts | 97° |
| 2026-05-01 11:32 | 47.59222 | 14.51994 | 37391 ft | 461 kts | 97° |
| 2026-05-01 11:33 | 47.57841 | 14.61280 | 37385 ft | 462 kts | 97° |
| 2026-05-01 11:33 | 47.56458 | 14.70568 | 37383 ft | 462 kts | 97° |
| 2026-05-01 11:34 | 47.55066 | 14.79846 | 37404 ft | 462 kts | 97° |
| 2026-05-01 11:34 | 47.53679 | 14.89124 | 37385 ft | 462 kts | 97° |
| 2026-05-01 11:35 | 47.52269 | 14.98386 | 37381 ft | 462 kts | 97° |
| 2026-05-01 11:35 | 47.50842 | 15.07675 | 37385 ft | 463 kts | 97° |
| 2026-05-01 11:36 | 47.49414 | 15.16932 | 37378 ft | 461 kts | 97° |
| 2026-05-01 11:36 | 47.47989 | 15.26162 | 37361 ft | 460 kts | 97° |
| 2026-05-01 11:37 | 47.46572 | 15.35352 | 37372 ft | 461 kts | 97° |
| 2026-05-01 11:37 | 47.45128 | 15.44577 | 37371 ft | 461 kts | 97° |
| 2026-05-01 11:38 | 47.43674 | 15.53796 | 37364 ft | 460 kts | 97° |
| 2026-05-01 11:38 | 47.42213 | 15.63005 | 37381 ft | 460 kts | 97° |
| 2026-05-01 11:39 | 47.40749 | 15.72212 | 37375 ft | 460 kts | 97° |
| 2026-05-01 11:39 | 47.39281 | 15.81410 | 37376 ft | 460 kts | 97° |
| 2026-05-01 11:40 | 47.37804 | 15.90606 | 37381 ft | 460 kts | 97° |
| 2026-05-01 11:40 | 47.36319 | 15.99799 | 37396 ft | 461 kts | 97° |
| 2026-05-01 11:41 | 47.34824 | 16.08994 | 37380 ft | 461 kts | 97° |
| 2026-05-01 11:41 | 47.33321 | 16.18183 | 37376 ft | 461 kts | 97° |
| 2026-05-01 11:42 | 47.31809 | 16.27385 | 37378 ft | 461 kts | 97° |
| 2026-05-01 11:42 | 47.30294 | 16.36557 | 37375 ft | 461 kts | 97° |
| 2026-05-01 11:43 | 47.28767 | 16.45748 | 37372 ft | 461 kts | 97° |
| 2026-05-01 11:43 | 47.27294 | 16.54936 | 37370 ft | 460 kts | 96° |
| 2026-05-01 11:44 | 47.25248 | 16.68744 | 37370 ft | 460 kts | 96° |
| 2026-05-01 11:44 | 47.23863 | 16.77951 | 37379 ft | 461 kts | 96° |
| 2026-05-01 11:45 | 47.22467 | 16.87079 | 37366 ft | 461 kts | 96° |
| 2026-05-01 11:45 | 47.21045 | 16.96291 | 37359 ft | 461 kts | 96° |
| 2026-05-01 11:46 | 47.19621 | 17.05470 | 37360 ft | 461 kts | 97° |
| 2026-05-01 11:46 | 47.18187 | 17.14656 | 37364 ft | 461 kts | 97° |
| 2026-05-01 11:47 | 47.16748 | 17.23837 | 37374 ft | 461 kts | 97° |
| 2026-05-01 11:47 | 47.15300 | 17.33015 | 37374 ft | 461 kts | 97° |
| 2026-05-01 11:48 | 47.13846 | 17.42177 | 37373 ft | 461 kts | 97° |
| 2026-05-01 11:48 | 47.12382 | 17.51353 | 37373 ft | 461 kts | 97° |
| 2026-05-01 11:49 | 47.10914 | 17.60513 | 37362 ft | 461 kts | 97° |
| 2026-05-01 11:49 | 47.09437 | 17.69668 | 37378 ft | 461 kts | 97° |
| 2026-05-01 11:50 | 47.08462 | 17.75683 | 37359 ft | 461 kts | 97° |
| 2026-05-01 11:50 | 47.07059 | 17.84310 | 37358 ft | 461 kts | 97° |
| 2026-05-01 11:51 | 47.05563 | 17.93456 | 37367 ft | 461 kts | 97° |
| 2026-05-01 11:51 | 47.04058 | 18.02603 | 37355 ft | 461 kts | 97° |
| 2026-05-01 11:52 | 47.02545 | 18.11749 | 37355 ft | 461 kts | 97° |
| 2026-05-01 11:52 | 47.01025 | 18.20895 | 37353 ft | 461 kts | 97° |
| 2026-05-01 11:53 | 46.99497 | 18.30033 | 37354 ft | 462 kts | 97° |
| 2026-05-01 11:53 | 46.97963 | 18.39162 | 37352 ft | 461 kts | 97° |
| 2026-05-01 11:54 | 46.96433 | 18.48213 | 37354 ft | 460 kts | 97° |
| 2026-05-01 11:54 | 46.94889 | 18.57310 | 37354 ft | 460 kts | 97° |
| 2026-05-01 11:55 | 46.93336 | 18.66410 | 37358 ft | 461 kts | 97° |
| 2026-05-01 11:55 | 46.91776 | 18.75501 | 37346 ft | 460 kts | 97° |
| 2026-05-01 11:56 | 46.90210 | 18.84576 | 37360 ft | 460 kts | 98° |
| 2026-05-01 11:56 | 46.88637 | 18.93651 | 37353 ft | 460 kts | 98° |
| 2026-05-01 11:57 | 46.87057 | 19.02715 | 37346 ft | 460 kts | 98° |
| 2026-05-01 11:57 | 46.85469 | 19.11781 | 37370 ft | 461 kts | 98° |
| 2026-05-01 11:58 | 46.83873 | 19.20849 | 37354 ft | 461 kts | 98° |
| 2026-05-01 11:59 | 46.81464 | 19.34450 | 37352 ft | 461 kts | 98° |
| 2026-05-01 11:59 | 46.79814 | 19.43447 | 37355 ft | 463 kts | 101° |
| 2026-05-01 12:00 | 46.76546 | 19.56792 | 37357 ft | 467 kts | 104° |
| 2026-05-01 12:01 | 46.73203 | 19.70105 | 37352 ft | 466 kts | 103° |
| 2026-05-01 12:01 | 46.71016 | 19.79060 | 37347 ft | 466 kts | 103° |
| 2026-05-01 12:02 | 46.68864 | 19.87900 | 37356 ft | 466 kts | 103° |
| 2026-05-01 12:02 | 46.66682 | 19.96828 | 37347 ft | 468 kts | 104° |
| 2026-05-01 12:03 | 46.64486 | 20.05765 | 37344 ft | 470 kts | 104° |
| 2026-05-01 12:03 | 46.62274 | 20.14716 | 37341 ft | 470 kts | 104° |
| 2026-05-01 12:04 | 46.60042 | 20.23715 | 37340 ft | 470 kts | 104° |
| 2026-05-01 12:04 | 46.57819 | 20.32644 | 37338 ft | 470 kts | 104° |
| 2026-05-01 12:05 | 46.55587 | 20.41575 | 37338 ft | 470 kts | 104° |
| 2026-05-01 12:05 | 46.52229 | 20.54951 | 37335 ft | 470 kts | 104° |
| 2026-05-01 12:06 | 46.49989 | 20.63830 | 37328 ft | 472 kts | 104° |
| 2026-05-01 12:06 | 46.47719 | 20.72796 | 37328 ft | 474 kts | 104° |
| 2026-05-01 12:07 | 46.45436 | 20.81767 | 37323 ft | 474 kts | 104° |
| 2026-05-01 12:07 | 46.43149 | 20.90719 | 37319 ft | 474 kts | 105° |
| 2026-05-01 12:08 | 46.40852 | 20.99680 | 37324 ft | 475 kts | 105° |
| 2026-05-01 12:08 | 46.38912 | 21.07226 | 37318 ft | 477 kts | 105° |
| 2026-05-01 12:09 | 46.36590 | 21.16222 | 37317 ft | 477 kts | 105° |
| 2026-05-01 12:09 | 46.34273 | 21.25157 | 37318 ft | 477 kts | 105° |
| 2026-05-01 12:10 | 46.30745 | 21.38707 | 37313 ft | 479 kts | 105° |
| 2026-05-01 12:11 | 46.27209 | 21.52206 | 37310 ft | 480 kts | 106° |
| 2026-05-01 12:11 | 46.24833 | 21.61232 | 37296 ft | 480 kts | 106° |
| 2026-05-01 12:12 | 46.22452 | 21.70246 | 37305 ft | 481 kts | 106° |
| 2026-05-01 12:12 | 46.20049 | 21.79305 | 37292 ft | 483 kts | 107° |
| 2026-05-01 12:13 | 46.17636 | 21.88369 | 37289 ft | 484 kts | 107° |
| 2026-05-01 12:13 | 46.15216 | 21.97424 | 37291 ft | 484 kts | 107° |
| 2026-05-01 12:14 | 46.12788 | 22.06472 | 37288 ft | 484 kts | 107° |
| 2026-05-01 12:14 | 46.10345 | 22.15542 | 37281 ft | 485 kts | 107° |
| 2026-05-01 12:15 | 46.07892 | 22.24615 | 37281 ft | 485 kts | 107° |
| 2026-05-01 12:15 | 46.05433 | 22.33671 | 37275 ft | 485 kts | 107° |
| 2026-05-01 12:16 | 46.02990 | 22.42733 | 37279 ft | 487 kts | 107° |
| 2026-05-01 12:16 | 46.00605 | 22.51872 | 37276 ft | 488 kts | 107° |
| 2026-05-01 12:17 | 45.98233 | 22.60964 | 37268 ft | 488 kts | 107° |
| 2026-05-01 12:17 | 45.95827 | 22.70101 | 37275 ft | 488 kts | 107° |
| 2026-05-01 12:18 | 45.93408 | 22.79226 | 37279 ft | 490 kts | 107° |
| 2026-05-01 12:18 | 45.90973 | 22.88366 | 37262 ft | 490 kts | 107° |
| 2026-05-01 12:19 | 45.88526 | 22.97519 | 37264 ft | 490 kts | 107° |
| 2026-05-01 12:19 | 45.86073 | 23.06657 | 37273 ft | 490 kts | 108° |
| 2026-05-01 12:20 | 45.83609 | 23.15802 | 37266 ft | 492 kts | 108° |
| 2026-05-01 12:20 | 45.81133 | 23.24957 | 37265 ft | 492 kts | 108° |
| 2026-05-01 12:21 | 45.78667 | 23.34040 | 37270 ft | 492 kts | 108° |
| 2026-05-01 12:21 | 45.76174 | 23.43198 | 37275 ft | 494 kts | 109° |
| 2026-05-01 12:22 | 45.73662 | 23.52381 | 37269 ft | 496 kts | 109° |
| 2026-05-01 12:22 | 45.71136 | 23.61577 | 37278 ft | 496 kts | 109° |
| 2026-05-01 12:23 | 45.68602 | 23.70762 | 37267 ft | 496 kts | 109° |
| 2026-05-01 12:23 | 45.66062 | 23.79934 | 37271 ft | 496 kts | 109° |
| 2026-05-01 12:24 | 45.63514 | 23.89111 | 37270 ft | 496 kts | 109° |
| 2026-05-01 12:24 | 45.60968 | 23.98243 | 37271 ft | 496 kts | 109° |
| 2026-05-01 12:25 | 45.57126 | 24.11967 | 37269 ft | 497 kts | 109° |
| 2026-05-01 12:26 | 45.54544 | 24.21138 | 37272 ft | 498 kts | 109° |
| 2026-05-01 12:26 | 45.50653 | 24.34893 | 37271 ft | 498 kts | 109° |
| 2026-05-01 12:27 | 45.46746 | 24.48635 | 37268 ft | 499 kts | 110° |
| 2026-05-01 12:28 | 45.42812 | 24.62395 | 37272 ft | 500 kts | 110° |
| 2026-05-01 12:29 | 45.38859 | 24.76140 | 37281 ft | 500 kts | 110° |
| 2026-05-01 12:29 | 45.34884 | 24.89884 | 37273 ft | 501 kts | 111° |
| 2026-05-01 12:30 | 45.30927 | 25.03639 | 37279 ft | 501 kts | 108° |
| 2026-05-01 12:31 | 45.28698 | 25.13007 | 37286 ft | 501 kts | 106° |
| 2026-05-01 12:31 | 45.26574 | 25.22438 | 37282 ft | 502 kts | 106° |
| 2026-05-01 12:32 | 45.24386 | 25.31849 | 37284 ft | 502 kts | 107° |
| 2026-05-01 12:32 | 45.21015 | 25.45936 | 37301 ft | 503 kts | 107° |
| 2026-05-01 12:33 | 45.18747 | 25.55328 | 37284 ft | 504 kts | 107° |
| 2026-05-01 12:33 | 45.16468 | 25.64733 | 37290 ft | 504 kts | 107° |
| 2026-05-01 12:34 | 45.14183 | 25.74128 | 37293 ft | 504 kts | 108° |
| 2026-05-01 12:34 | 45.11890 | 25.83521 | 37295 ft | 505 kts | 108° |
| 2026-05-01 12:35 | 45.09586 | 25.92920 | 37292 ft | 506 kts | 108° |
| 2026-05-01 12:35 | 45.07273 | 26.02317 | 37295 ft | 506 kts | 108° |
| 2026-05-01 12:36 | 45.04950 | 26.11716 | 37295 ft | 506 kts | 108° |
| 2026-05-01 12:36 | 45.02617 | 26.21117 | 37298 ft | 507 kts | 108° |
| 2026-05-01 12:37 | 45.00275 | 26.30512 | 37297 ft | 507 kts | 108° |
| 2026-05-01 12:37 | 44.97925 | 26.39902 | 37298 ft | 507 kts | 108° |
| 2026-05-01 12:38 | 44.95567 | 26.49286 | 37302 ft | 507 kts | 109° |
| 2026-05-01 12:38 | 44.93199 | 26.58673 | 37299 ft | 508 kts | 109° |
| 2026-05-01 12:39 | 44.90823 | 26.68054 | 37298 ft | 508 kts | 109° |
| 2026-05-01 12:39 | 44.88438 | 26.77429 | 37297 ft | 508 kts | 109° |
| 2026-05-01 12:40 | 44.86047 | 26.86793 | 37292 ft | 508 kts | 109° |
| 2026-05-01 12:40 | 44.83643 | 26.96167 | 37295 ft | 509 kts | 109° |
| 2026-05-01 12:41 | 44.81230 | 27.05537 | 37291 ft | 509 kts | 109° |
| 2026-05-01 12:41 | 44.78809 | 27.14902 | 37290 ft | 509 kts | 110° |
| 2026-05-01 12:42 | 44.76384 | 27.24250 | 37294 ft | 509 kts | 110° |
| 2026-05-01 12:42 | 44.73947 | 27.33600 | 37290 ft | 509 kts | 110° |
| 2026-05-01 12:43 | 44.71503 | 27.42943 | 37296 ft | 509 kts | 110° |
| 2026-05-01 12:43 | 44.69053 | 27.52275 | 37287 ft | 509 kts | 110° |
| 2026-05-01 12:44 | 44.66587 | 27.61628 | 37291 ft | 510 kts | 110° |
| 2026-05-01 12:45 | 44.61453 | 27.80199 | 37288 ft | 510 kts | 112° |
| 2026-05-01 12:45 | 44.58802 | 27.89377 | 37289 ft | 511 kts | 112° |
| 2026-05-01 12:46 | 44.56140 | 27.98636 | 37284 ft | 511 kts | 112° |
| 2026-05-01 12:46 | 44.53935 | 28.06321 | 37279 ft | 512 kts | 112° |
| 2026-05-01 12:47 | 44.51256 | 28.15636 | 37285 ft | 511 kts | 112° |
| 2026-05-01 12:47 | 44.48588 | 28.24883 | 37286 ft | 512 kts | 112° |
| 2026-05-01 12:48 | 44.45927 | 28.34066 | 37290 ft | 512 kts | 112° |
| 2026-05-01 12:48 | 44.43235 | 28.43320 | 37294 ft | 512 kts | 112° |
| 2026-05-01 12:49 | 44.40542 | 28.52546 | 37291 ft | 513 kts | 113° |
| 2026-05-01 12:49 | 44.37835 | 28.61785 | 37290 ft | 513 kts | 113° |
| 2026-05-01 12:50 | 44.35115 | 28.71031 | 37287 ft | 513 kts | 113° |
| 2026-05-01 12:50 | 44.32392 | 28.80257 | 37283 ft | 513 kts | 113° |
| 2026-05-01 12:51 | 44.29661 | 28.89474 | 37276 ft | 514 kts | 113° |
| 2026-05-01 12:52 | 44.25559 | 29.03256 | 37270 ft | 514 kts | 114° |
| 2026-05-01 12:52 | 44.21427 | 29.17068 | 37265 ft | 515 kts | 114° |
| 2026-05-01 12:53 | 44.17265 | 29.30900 | 37261 ft | 516 kts | 114° |
| 2026-05-01 12:54 | 44.14480 | 29.40115 | 37259 ft | 516 kts | 114° |
| 2026-05-01 12:54 | 44.10284 | 29.53936 | 37260 ft | 517 kts | 114° |
| 2026-05-01 12:55 | 44.06068 | 29.67747 | 37254 ft | 517 kts | 114° |
| 2026-05-01 12:56 | 44.03246 | 29.76952 | 37246 ft | 517 kts | 115° |
| 2026-05-01 12:56 | 44.00417 | 29.86145 | 37249 ft | 517 kts | 115° |
| 2026-05-01 12:57 | 43.97580 | 29.95335 | 37249 ft | 517 kts | 115° |
| 2026-05-01 12:57 | 43.93315 | 30.09087 | 37233 ft | 517 kts | 115° |
| 2026-05-01 12:58 | 43.90482 | 30.18182 | 37244 ft | 517 kts | 115° |
| 2026-05-01 12:59 | 43.86192 | 30.31892 | 37238 ft | 517 kts | 116° |
| 2026-05-01 12:59 | 43.81888 | 30.45579 | 37233 ft | 517 kts | 116° |
| 2026-05-01 13:00 | 43.77817 | 30.59407 | 37236 ft | 518 kts | 111° |
| 2026-05-01 13:01 | 43.74315 | 30.73564 | 37227 ft | 519 kts | 111° |
| 2026-05-01 13:02 | 43.70697 | 30.87685 | 37225 ft | 519 kts | 112° |
| 2026-05-01 13:07 | 43.42456 | 31.90189 | 37197 ft | 521 kts | 115° |
| 2026-05-01 13:08 | 43.39831 | 31.99479 | 37164 ft | 521 kts | 115° |
| 2026-05-01 13:08 | 43.37198 | 32.08766 | 37186 ft | 521 kts | 115° |
| 2026-05-01 13:09 | 43.34556 | 32.18043 | 37184 ft | 521 kts | 115° |
| 2026-05-01 13:09 | 43.31903 | 32.27325 | 37180 ft | 521 kts | 116° |
| 2026-05-01 13:10 | 43.29246 | 32.36590 | 37169 ft | 521 kts | 116° |
| 2026-05-01 13:10 | 43.26583 | 32.45841 | 37179 ft | 521 kts | 116° |
| 2026-05-01 13:11 | 43.23909 | 32.55096 | 37179 ft | 521 kts | 116° |
| 2026-05-01 13:11 | 43.21231 | 32.64334 | 37164 ft | 521 kts | 117° |
| 2026-05-01 13:12 | 43.18545 | 32.73564 | 37164 ft | 520 kts | 117° |
| 2026-05-01 13:12 | 43.15856 | 32.82767 | 37164 ft | 520 kts | 117° |
| 2026-05-01 13:13 | 43.13158 | 32.91969 | 37147 ft | 520 kts | 117° |
| 2026-05-01 13:13 | 43.10460 | 33.01140 | 37163 ft | 518 kts | 117° |
| 2026-05-01 13:14 | 43.07761 | 33.10281 | 37157 ft | 518 kts | 117° |
| 2026-05-01 13:14 | 43.05053 | 33.19418 | 37157 ft | 518 kts | 117° |
| 2026-05-01 13:15 | 43.02358 | 33.28477 | 37151 ft | 518 kts | 117° |
| 2026-05-01 13:15 | 42.99637 | 33.37593 | 37151 ft | 517 kts | 118° |
| 2026-05-01 13:16 | 42.96911 | 33.46693 | 37145 ft | 517 kts | 118° |
| 2026-05-01 13:16 | 42.94180 | 33.55780 | 37144 ft | 517 kts | 118° |
| 2026-05-01 13:17 | 42.88700 | 33.73917 | 37143 ft | 517 kts | 118° |
| 2026-05-01 13:18 | 42.84570 | 33.87501 | 37141 ft | 517 kts | 118° |
| 2026-05-01 13:18 | 42.81810 | 33.96539 | 37138 ft | 516 kts | 118° |
| 2026-05-01 13:19 | 42.79046 | 34.05562 | 37138 ft | 516 kts | 118° |
| 2026-05-01 13:20 | 42.75039 | 34.19201 | 37131 ft | 518 kts | 116° |
| 2026-05-01 13:20 | 42.72516 | 34.28374 | 37131 ft | 517 kts | 116° |
| 2026-05-01 13:21 | 42.68698 | 34.42043 | 37129 ft | 517 kts | 116° |
| 2026-05-01 13:21 | 42.66109 | 34.51169 | 37122 ft | 518 kts | 117° |
| 2026-05-01 13:22 | 42.63490 | 34.60353 | 37116 ft | 518 kts | 117° |
| 2026-05-01 13:22 | 42.60897 | 34.69420 | 37116 ft | 518 kts | 117° |
| 2026-05-01 13:23 | 42.58265 | 34.78593 | 37108 ft | 518 kts | 117° |
| 2026-05-01 13:23 | 42.55647 | 34.87687 | 37110 ft | 517 kts | 117° |
| 2026-05-01 13:24 | 42.53021 | 34.96774 | 37108 ft | 517 kts | 117° |
| 2026-05-01 13:25 | 42.49072 | 35.10377 | 37098 ft | 516 kts | 117° |
| 2026-05-01 13:25 | 42.46450 | 35.19370 | 37097 ft | 516 kts | 117° |
| 2026-05-01 13:26 | 42.43806 | 35.28404 | 37096 ft | 516 kts | 117° |
| 2026-05-01 13:26 | 42.41154 | 35.37434 | 37076 ft | 515 kts | 117° |
| 2026-05-01 13:27 | 42.38950 | 35.44916 | 37086 ft | 514 kts | 117° |
| 2026-05-01 13:27 | 42.34969 | 35.58376 | 37086 ft | 514 kts | 117° |
| 2026-05-01 13:28 | 42.30974 | 35.71814 | 37081 ft | 513 kts | 117° |
| 2026-05-01 13:29 | 42.25633 | 35.89669 | 37073 ft | 512 kts | 117° |
| 2026-05-01 13:31 | 42.17577 | 36.16371 | 37068 ft | 512 kts | 118° |
| 2026-05-01 13:32 | 42.10833 | 36.38515 | 37054 ft | 512 kts | 118° |
| 2026-05-01 13:33 | 42.04017 | 36.60707 | 37049 ft | 512 kts | 118° |
| 2026-05-01 13:34 | 41.98564 | 36.78329 | 37053 ft | 512 kts | 118° |
| 2026-05-01 13:35 | 41.94445 | 36.91565 | 37044 ft | 511 kts | 118° |
| 2026-05-01 13:36 | 41.90787 | 37.05054 | 37046 ft | 520 kts | 105° |
| 2026-05-01 13:36 | 41.90083 | 37.19701 | 37022 ft | 527 kts | 95° |
| 2026-05-01 13:37 | 41.89983 | 37.29534 | 37034 ft | 526 kts | 94° |
| 2026-05-01 13:37 | 41.89870 | 37.39356 | 37038 ft | 526 kts | 95° |
| 2026-05-01 13:38 | 41.89633 | 37.54084 | 37027 ft | 526 kts | 95° |
| 2026-05-01 13:39 | 41.89454 | 37.63898 | 37029 ft | 525 kts | 95° |
| 2026-05-01 13:39 | 41.89268 | 37.73687 | 37025 ft | 524 kts | 95° |
| 2026-05-01 13:40 | 41.89074 | 37.83474 | 37026 ft | 524 kts | 95° |
| 2026-05-01 13:40 | 41.88872 | 37.93248 | 37016 ft | 524 kts | 95° |
| 2026-05-01 13:41 | 41.88663 | 38.03022 | 37002 ft | 523 kts | 95° |
| 2026-05-01 13:41 | 41.88446 | 38.12766 | 37016 ft | 522 kts | 95° |
| 2026-05-01 13:42 | 41.88220 | 38.22498 | 37012 ft | 521 kts | 95° |
| 2026-05-01 13:42 | 41.87987 | 38.32224 | 37016 ft | 521 kts | 96° |
| 2026-05-01 13:43 | 41.87745 | 38.41944 | 37017 ft | 521 kts | 96° |
| 2026-05-01 13:43 | 41.87495 | 38.51678 | 37005 ft | 521 kts | 96° |
| 2026-05-01 13:44 | 41.87237 | 38.61389 | 37013 ft | 521 kts | 96° |
| 2026-05-01 13:44 | 41.86971 | 38.71121 | 37011 ft | 521 kts | 96° |
| 2026-05-01 13:45 | 41.86697 | 38.80833 | 37014 ft | 521 kts | 96° |
| 2026-05-01 13:45 | 41.86414 | 38.90558 | 37010 ft | 522 kts | 96° |
| 2026-05-01 13:46 | 41.86122 | 39.00304 | 37011 ft | 523 kts | 96° |
| 2026-05-01 13:46 | 41.85822 | 39.10058 | 37007 ft | 524 kts | 96° |
| 2026-05-01 13:47 | 41.85514 | 39.19817 | 37006 ft | 524 kts | 96° |
| 2026-05-01 13:47 | 41.85197 | 39.29576 | 36993 ft | 524 kts | 96° |
| 2026-05-01 13:48 | 41.84872 | 39.39337 | 37002 ft | 523 kts | 96° |
| 2026-05-01 13:48 | 41.84540 | 39.49082 | 37001 ft | 523 kts | 96° |
| 2026-05-01 13:49 | 41.84204 | 39.58828 | 36999 ft | 523 kts | 96° |
| 2026-05-01 13:49 | 41.83854 | 39.68586 | 36997 ft | 523 kts | 96° |
| 2026-05-01 13:50 | 41.83494 | 39.78340 | 36995 ft | 523 kts | 96° |
| 2026-05-01 13:50 | 41.83127 | 39.88103 | 36992 ft | 524 kts | 96° |
| 2026-05-01 13:51 | 41.82754 | 39.97853 | 36992 ft | 524 kts | 96° |
| 2026-05-01 13:51 | 41.82373 | 40.07599 | 36992 ft | 524 kts | 96° |
| 2026-05-01 13:52 | 41.81987 | 40.17349 | 36988 ft | 524 kts | 96° |
| 2026-05-01 13:52 | 41.81588 | 40.27094 | 36987 ft | 523 kts | 96° |
| 2026-05-01 13:53 | 41.81179 | 40.36783 | 36985 ft | 523 kts | 96° |
| 2026-05-01 13:53 | 41.80548 | 40.51454 | 36982 ft | 523 kts | 96° |
| 2026-05-01 13:54 | 41.80123 | 40.61124 | 36983 ft | 523 kts | 96° |
| 2026-05-01 13:54 | 41.79684 | 40.70852 | 36982 ft | 523 kts | 97° |
| 2026-05-01 13:55 | 41.79208 | 40.80593 | 36982 ft | 523 kts | 97° |
| 2026-05-01 13:55 | 41.78719 | 40.90325 | 36981 ft | 523 kts | 97° |
| 2026-05-01 13:56 | 41.78226 | 41.00040 | 36987 ft | 523 kts | 97° |
| 2026-05-01 13:56 | 41.77727 | 41.09772 | 36988 ft | 523 kts | 97° |
| 2026-05-01 13:57 | 41.77307 | 41.17842 | 36999 ft | 523 kts | 97° |
| 2026-05-01 13:57 | 41.76710 | 41.29156 | 37005 ft | 523 kts | 97° |
| 2026-05-01 13:58 | 41.76184 | 41.38930 | 36990 ft | 522 kts | 97° |
| 2026-05-01 13:58 | 41.75654 | 41.48627 | 36999 ft | 521 kts | 97° |
| 2026-05-01 13:59 | 41.75117 | 41.58309 | 36994 ft | 521 kts | 97° |
| 2026-05-01 13:59 | 41.74572 | 41.67989 | 36995 ft | 521 kts | 97° |
| 2026-05-01 14:00 | 41.74019 | 41.77658 | 36972 ft | 522 kts | 97° |
| 2026-05-01 14:00 | 41.73458 | 41.87328 | 37003 ft | 519 kts | 97° |
| 2026-05-01 14:01 | 41.72900 | 41.96913 | 36981 ft | 519 kts | 97° |
| 2026-05-01 14:01 | 41.72325 | 42.06552 | 36974 ft | 519 kts | 97° |
| 2026-05-01 14:02 | 41.71744 | 42.16164 | 36965 ft | 518 kts | 97° |
| 2026-05-01 14:02 | 41.71147 | 42.25787 | 36972 ft | 518 kts | 98° |
| 2026-05-01 14:03 | 41.70546 | 42.35390 | 36959 ft | 517 kts | 98° |
| 2026-05-01 14:03 | 41.69938 | 42.44985 | 36973 ft | 517 kts | 98° |
| 2026-05-01 14:04 | 41.69322 | 42.54586 | 36972 ft | 518 kts | 98° |
| 2026-05-01 14:04 | 41.68805 | 42.62555 | 36964 ft | 517 kts | 98° |
| 2026-05-01 14:05 | 41.68177 | 42.72132 | 36970 ft | 515 kts | 98° |
| 2026-05-01 14:05 | 41.67543 | 42.81674 | 36983 ft | 515 kts | 98° |
| 2026-05-01 14:06 | 41.66906 | 42.91203 | 36977 ft | 515 kts | 98° |
| 2026-05-01 14:06 | 41.66252 | 43.00748 | 36986 ft | 515 kts | 98° |
| 2026-05-01 14:07 | 41.65589 | 43.10281 | 36988 ft | 514 kts | 98° |
| 2026-05-01 14:08 | 41.64586 | 43.24537 | 36988 ft | 514 kts | 98° |
| 2026-05-01 14:08 | 41.63907 | 43.34055 | 37000 ft | 514 kts | 98° |
| 2026-05-01 14:09 | 41.63219 | 43.43582 | 36998 ft | 514 kts | 98° |
| 2026-05-01 14:09 | 41.62528 | 43.53097 | 37018 ft | 514 kts | 98° |
| 2026-05-01 14:10 | 41.61832 | 43.62598 | 37025 ft | 514 kts | 98° |
| 2026-05-01 14:10 | 41.61124 | 43.72096 | 37025 ft | 513 kts | 98° |
| 2026-05-01 14:11 | 41.60410 | 43.81600 | 37044 ft | 515 kts | 99° |
| 2026-05-01 14:11 | 41.59316 | 43.95948 | 37056 ft | 520 kts | 99° |
| 2026-05-01 14:12 | 41.58575 | 44.05566 | 37054 ft | 520 kts | 99° |
| 2026-05-01 14:12 | 41.57824 | 44.15189 | 37064 ft | 520 kts | 99° |
| 2026-05-01 14:13 | 41.56703 | 44.24688 | 37045 ft | 515 kts | 110° |
| 2026-05-01 14:13 | 41.54609 | 44.33815 | 37064 ft | 513 kts | 111° |
| 2026-05-01 14:14 | 41.52365 | 44.42847 | 37069 ft | 513 kts | 112° |
| 2026-05-01 14:14 | 41.50070 | 44.51972 | 37068 ft | 513 kts | 112° |
| 2026-05-01 14:15 | 41.47806 | 44.61005 | 37064 ft | 513 kts | 112° |
| 2026-05-01 14:15 | 41.45540 | 44.70051 | 37058 ft | 513 kts | 112° |
| 2026-05-01 14:16 | 41.43276 | 44.79064 | 37059 ft | 513 kts | 112° |
| 2026-05-01 14:16 | 41.41004 | 44.88072 | 37027 ft | 512 kts | 112° |
| 2026-05-01 14:17 | 41.38726 | 44.97068 | 37054 ft | 512 kts | 112° |
| 2026-05-01 14:17 | 41.36430 | 45.06104 | 37045 ft | 511 kts | 112° |
| 2026-05-01 14:18 | 41.34147 | 45.15069 | 37045 ft | 511 kts | 112° |
| 2026-05-01 14:18 | 41.32236 | 45.22521 | 37041 ft | 511 kts | 112° |
| 2026-05-01 14:19 | 41.29544 | 45.32970 | 37050 ft | 511 kts | 112° |
| 2026-05-01 14:19 | 41.27233 | 45.41913 | 37046 ft | 510 kts | 112° |
| 2026-05-01 14:20 | 41.23768 | 45.55269 | 37040 ft | 509 kts | 112° |
| 2026-05-01 14:21 | 41.21468 | 45.64098 | 37041 ft | 508 kts | 112° |
| 2026-05-01 14:21 | 41.19133 | 45.73028 | 37041 ft | 508 kts | 112° |
| 2026-05-01 14:22 | 41.15636 | 45.86260 | 37040 ft | 509 kts | 112° |
| 2026-05-01 14:22 | 41.13273 | 45.95166 | 37049 ft | 509 kts | 112° |
| 2026-05-01 14:23 | 41.10919 | 46.04013 | 37045 ft | 509 kts | 112° |
| 2026-05-01 14:23 | 41.08560 | 46.12853 | 37029 ft | 509 kts | 112° |
| 2026-05-01 14:24 | 41.06190 | 46.21699 | 37056 ft | 510 kts | 112° |
| 2026-05-01 14:24 | 41.03810 | 46.30555 | 37056 ft | 510 kts | 112° |
| 2026-05-01 14:25 | 41.01440 | 46.39406 | 37056 ft | 510 kts | 112° |
| 2026-05-01 14:25 | 40.99076 | 46.48261 | 37056 ft | 510 kts | 112° |
| 2026-05-01 14:26 | 40.95508 | 46.61547 | 37053 ft | 511 kts | 112° |
| 2026-05-01 14:27 | 40.93118 | 46.70395 | 37052 ft | 511 kts | 112° |
| 2026-05-01 14:27 | 40.90751 | 46.79256 | 37049 ft | 513 kts | 110° |
| 2026-05-01 14:28 | 40.89451 | 46.88556 | 37055 ft | 517 kts | 99° |
| 2026-05-01 14:28 | 40.89056 | 46.93280 | 37056 ft | 518 kts | 98° |
| 2026-05-01 14:28 | 40.88379 | 47.02766 | 37057 ft | 518 kts | 97° |
| 2026-05-01 14:29 | 40.87715 | 47.12251 | 37055 ft | 518 kts | 97° |
| 2026-05-01 14:30 | 40.86309 | 47.31208 | 37057 ft | 518 kts | 98° |
| 2026-05-01 14:31 | 40.85219 | 47.45422 | 37049 ft | 518 kts | 98° |
| 2026-05-01 14:31 | 40.84502 | 47.54872 | 37048 ft | 518 kts | 97° |
| 2026-05-01 14:31 | 40.84199 | 47.59628 | 37181 ft | 518 kts | 96° |
| 2026-05-01 14:32 | 40.83921 | 47.64374 | 37419 ft | 517 kts | 96° |
| 2026-05-01 14:32 | 40.83740 | 47.67509 | 37550 ft | 517 kts | 96° |
| 2026-05-01 14:32 | 40.83370 | 47.73842 | 37775 ft | 517 kts | 96° |
| 2026-05-01 14:32 | 40.83085 | 47.78577 | 37926 ft | 517 kts | 97° |
| 2026-05-01 14:33 | 40.82793 | 47.83308 | 38089 ft | 517 kts | 97° |
| 2026-05-01 14:33 | 40.82494 | 47.88059 | 38233 ft | 517 kts | 97° |
| 2026-05-01 14:33 | 40.82193 | 47.92781 | 38383 ft | 517 kts | 97° |
| 2026-05-01 14:33 | 40.81889 | 47.97520 | 38522 ft | 518 kts | 97° |
| 2026-05-01 14:34 | 40.81583 | 48.02247 | 38634 ft | 518 kts | 97° |
| 2026-05-01 14:34 | 40.81274 | 48.06994 | 38744 ft | 518 kts | 97° |
| 2026-05-01 14:34 | 40.81068 | 48.10134 | 38812 ft | 518 kts | 97° |
| 2026-05-01 14:34 | 40.80757 | 48.14865 | 38953 ft | 517 kts | 97° |
| 2026-05-01 14:35 | 40.80445 | 48.19590 | 39035 ft | 517 kts | 97° |
| 2026-05-01 14:35 | 40.79810 | 48.29098 | 39050 ft | 521 kts | 97° |
| 2026-05-01 14:36 | 40.79167 | 48.38627 | 39049 ft | 521 kts | 97° |
| 2026-05-01 14:36 | 40.78515 | 48.48161 | 39035 ft | 522 kts | 97° |
| 2026-05-01 14:37 | 40.77856 | 48.57699 | 39027 ft | 522 kts | 97° |
| 2026-05-01 14:37 | 40.77191 | 48.67216 | 39026 ft | 520 kts | 97° |
| 2026-05-01 14:38 | 40.76518 | 48.76703 | 39005 ft | 518 kts | 97° |
| 2026-05-01 14:38 | 40.75838 | 48.86179 | 39000 ft | 519 kts | 97° |
| 2026-05-01 14:39 | 40.75144 | 48.95738 | 38995 ft | 520 kts | 97° |
| 2026-05-01 14:39 | 40.74446 | 49.05241 | 38991 ft | 520 kts | 97° |
| 2026-05-01 14:40 | 40.73742 | 49.14743 | 38981 ft | 520 kts | 97° |
| 2026-05-01 14:40 | 40.73028 | 49.24251 | 38980 ft | 521 kts | 97° |
| 2026-05-01 14:41 | 40.72084 | 49.33706 | 38978 ft | 520 kts | 101° |
| 2026-05-01 14:41 | 40.70879 | 49.43113 | 38994 ft | 521 kts | 102° |
| 2026-05-01 14:42 | 40.69686 | 49.52527 | 38995 ft | 521 kts | 101° |
| 2026-05-01 14:42 | 40.68532 | 49.61945 | 39010 ft | 521 kts | 101° |
| 2026-05-01 14:43 | 40.67386 | 49.71374 | 39007 ft | 520 kts | 101° |
| 2026-05-01 14:43 | 40.66239 | 49.80769 | 39022 ft | 520 kts | 101° |
| 2026-05-01 14:44 | 40.65082 | 49.90168 | 39026 ft | 520 kts | 101° |
| 2026-05-01 14:44 | 40.63330 | 50.04264 | 39025 ft | 520 kts | 101° |
| 2026-05-01 14:45 | 40.61561 | 50.18348 | 39027 ft | 521 kts | 101° |
| 2026-05-01 14:46 | 40.60370 | 50.27748 | 39036 ft | 520 kts | 101° |
| 2026-05-01 14:46 | 40.58574 | 50.41818 | 39057 ft | 520 kts | 102° |
| 2026-05-01 14:47 | 40.57365 | 50.51200 | 39066 ft | 520 kts | 102° |
| 2026-05-01 14:48 | 40.55541 | 50.65255 | 39075 ft | 520 kts | 102° |
| 2026-05-01 14:48 | 40.53697 | 50.79315 | 39078 ft | 520 kts | 102° |
| 2026-05-01 14:49 | 40.51303 | 50.98118 | 39080 ft | 522 kts | 99° |
| 2026-05-01 14:50 | 40.49703 | 51.17091 | 39097 ft | 522 kts | 98° |
| 2026-05-01 14:51 | 40.48423 | 51.31309 | 39092 ft | 522 kts | 98° |
| 2026-05-01 14:52 | 40.47086 | 51.45503 | 39099 ft | 522 kts | 99° |
| 2026-05-01 14:53 | 40.44950 | 51.59457 | 39099 ft | 520 kts | 105° |
| 2026-05-01 14:53 | 40.43260 | 51.68694 | 39095 ft | 520 kts | 106° |
| 2026-05-01 14:54 | 40.41548 | 51.77912 | 39098 ft | 520 kts | 106° |
| 2026-05-01 14:54 | 40.39839 | 51.87120 | 39102 ft | 519 kts | 106° |
| 2026-05-01 14:55 | 40.38129 | 51.96327 | 39101 ft | 519 kts | 106° |
| 2026-05-01 14:55 | 40.36415 | 52.05521 | 39101 ft | 519 kts | 106° |
| 2026-05-01 14:56 | 40.34694 | 52.14707 | 39108 ft | 519 kts | 106° |
| 2026-05-01 14:56 | 40.32966 | 52.23887 | 39109 ft | 519 kts | 106° |
| 2026-05-01 14:57 | 40.31240 | 52.33011 | 39110 ft | 519 kts | 106° |
| 2026-05-01 14:57 | 40.28625 | 52.46759 | 39113 ft | 518 kts | 106° |
| 2026-05-01 14:58 | 40.26877 | 52.55895 | 39112 ft | 517 kts | 106° |
| 2026-05-01 14:58 | 40.25124 | 52.65040 | 39119 ft | 517 kts | 106° |
| 2026-05-01 14:59 | 40.23366 | 52.74172 | 39115 ft | 518 kts | 106° |
| 2026-05-01 14:59 | 40.21597 | 52.83312 | 39119 ft | 518 kts | 106° |
| 2026-05-01 15:00 | 40.18931 | 52.97013 | 39123 ft | 518 kts | 106° |
| 2026-05-01 15:01 | 40.17145 | 53.06144 | 39103 ft | 518 kts | 106° |
| 2026-05-01 15:01 | 40.15352 | 53.15271 | 39113 ft | 518 kts | 106° |
| 2026-05-01 15:02 | 40.13554 | 53.24381 | 39113 ft | 518 kts | 106° |
| 2026-05-01 15:02 | 40.11760 | 53.33428 | 39107 ft | 517 kts | 107° |
| 2026-05-01 15:03 | 40.09936 | 53.42586 | 39097 ft | 517 kts | 107° |
| 2026-05-01 15:03 | 40.08117 | 53.51681 | 39092 ft | 518 kts | 107° |
| 2026-05-01 15:04 | 40.06291 | 53.60764 | 39104 ft | 517 kts | 107° |
| 2026-05-01 15:04 | 40.04462 | 53.69827 | 39097 ft | 517 kts | 107° |
| 2026-05-01 15:05 | 40.02635 | 53.78839 | 39082 ft | 517 kts | 107° |
| 2026-05-01 15:05 | 40.00791 | 53.87899 | 39088 ft | 517 kts | 107° |
| 2026-05-01 15:06 | 39.98936 | 53.96971 | 39089 ft | 517 kts | 107° |
| 2026-05-01 15:06 | 39.97076 | 54.06023 | 39090 ft | 517 kts | 107° |
| 2026-05-01 15:07 | 39.95212 | 54.15064 | 39087 ft | 516 kts | 107° |
| 2026-05-01 15:07 | 39.93345 | 54.24075 | 39089 ft | 515 kts | 107° |
| 2026-05-01 15:08 | 39.91469 | 54.33092 | 39089 ft | 515 kts | 107° |
| 2026-05-01 15:08 | 39.89587 | 54.42099 | 39091 ft | 515 kts | 107° |
| 2026-05-01 15:09 | 39.87696 | 54.51115 | 39094 ft | 516 kts | 108° |
| 2026-05-01 15:09 | 39.85784 | 54.60111 | 39094 ft | 516 kts | 108° |
| 2026-05-01 15:10 | 39.84174 | 54.67643 | 39099 ft | 516 kts | 108° |
| 2026-05-01 15:10 | 39.81305 | 54.81062 | 39098 ft | 515 kts | 108° |
| 2026-05-01 15:11 | 39.78422 | 54.94545 | 39097 ft | 516 kts | 108° |
| 2026-05-01 15:12 | 39.76491 | 55.03524 | 39092 ft | 516 kts | 108° |
| 2026-05-01 15:12 | 39.73583 | 55.16985 | 39087 ft | 516 kts | 108° |
| 2026-05-01 15:14 | 39.68693 | 55.39437 | 39091 ft | 517 kts | 108° |
| 2026-05-01 15:14 | 39.65725 | 55.52889 | 39087 ft | 517 kts | 109° |
| 2026-05-01 15:15 | 39.61741 | 55.70803 | 39096 ft | 517 kts | 109° |
| 2026-05-01 15:16 | 39.57729 | 55.88720 | 39094 ft | 518 kts | 109° |
| 2026-05-01 15:18 | 39.52724 | 56.11097 | 39099 ft | 518 kts | 109° |
| 2026-05-01 15:19 | 39.48676 | 56.29045 | 39096 ft | 519 kts | 109° |
| 2026-05-01 15:19 | 39.45619 | 56.42502 | 39100 ft | 520 kts | 109° |
| 2026-05-01 15:20 | 39.42542 | 56.55969 | 39100 ft | 520 kts | 109° |
| 2026-05-01 15:21 | 39.40479 | 56.64952 | 39096 ft | 521 kts | 109° |
| 2026-05-01 15:21 | 39.38408 | 56.73939 | 39098 ft | 522 kts | 109° |
| 2026-05-01 15:22 | 39.35218 | 56.87405 | 39095 ft | 522 kts | 111° |
| 2026-05-01 15:22 | 39.32908 | 56.96292 | 39101 ft | 522 kts | 112° |
| 2026-05-01 15:23 | 39.30578 | 57.05185 | 39104 ft | 523 kts | 111° |
| 2026-05-01 15:23 | 39.28265 | 57.14087 | 39105 ft | 523 kts | 111° |
| 2026-05-01 15:24 | 39.25957 | 57.22992 | 39102 ft | 524 kts | 111° |
| 2026-05-01 15:24 | 39.23650 | 57.31870 | 39103 ft | 525 kts | 111° |
| 2026-05-01 15:25 | 39.21324 | 57.40792 | 39102 ft | 525 kts | 111° |
| 2026-05-01 15:25 | 39.18984 | 57.49727 | 39100 ft | 525 kts | 112° |
| 2026-05-01 15:26 | 39.16638 | 57.58651 | 39103 ft | 527 kts | 112° |
| 2026-05-01 15:26 | 39.14278 | 57.67599 | 39093 ft | 528 kts | 112° |
| 2026-05-01 15:27 | 39.11912 | 57.76540 | 39106 ft | 527 kts | 112° |
| 2026-05-01 15:28 | 39.08345 | 57.89954 | 39103 ft | 529 kts | 112° |
| 2026-05-01 15:28 | 39.05954 | 57.98907 | 39105 ft | 530 kts | 112° |
| 2026-05-01 15:29 | 39.02348 | 58.12352 | 39108 ft | 530 kts | 112° |
| 2026-05-01 15:30 | 38.97507 | 58.30286 | 39113 ft | 532 kts | 112° |
| 2026-05-01 15:31 | 38.90196 | 58.57143 | 39108 ft | 532 kts | 112° |
| 2026-05-01 15:32 | 38.84144 | 58.74386 | 39115 ft | 529 kts | 120° |
| 2026-05-01 15:34 | 38.74173 | 58.99640 | 39112 ft | 529 kts | 121° |